createdAt,value
2019-03-29T00:00:52.426Z,0
2019-03-29T00:01:23.100Z,0
2019-03-29T00:02:24.141Z,0
2019-03-29T00:03:23.133Z,0
2019-03-29T00:04:23.260Z,0
2019-03-29T00:06:23.228Z,0
2019-03-29T00:07:22.982Z,0
2019-03-29T00:09:23.257Z,0
2019-03-29T00:10:37.988Z,0
2019-03-29T00:11:23.300Z,0
2019-03-29T00:12:23.331Z,0
2019-03-29T00:13:23.488Z,0
2019-03-29T00:14:38.009Z,0
2019-03-29T00:15:23.396Z,0
2019-03-29T00:16:38.033Z,0
2019-03-29T00:17:23.174Z,0
2019-03-29T00:18:23.536Z,0
2019-03-29T00:19:23.475Z,0
2019-03-29T00:20:24.861Z,0
2019-03-29T00:21:23.481Z,0
2019-03-29T00:22:23.494Z,0
2019-03-29T00:23:38.214Z,0
2019-03-29T00:24:23.556Z,0
2019-03-29T00:25:23.541Z,0
2019-03-29T00:26:23.581Z,0
2019-03-29T00:27:38.234Z,0
2019-03-29T00:28:23.618Z,0
2019-03-29T00:30:24.449Z,0
2019-03-29T00:31:38.395Z,0
2019-03-29T00:32:23.425Z,0
2019-03-29T00:33:24.000Z,0
2019-03-29T00:34:23.725Z,0
2019-03-29T00:35:23.732Z,0
2019-03-29T00:36:23.782Z,0
2019-03-29T00:38:23.778Z,0
2019-03-29T00:39:23.817Z,0
2019-03-29T00:40:23.842Z,0
2019-03-29T00:41:24.369Z,0
2019-03-29T00:42:24.465Z,0
2019-03-29T00:43:23.993Z,0
2019-03-29T00:44:23.890Z,0
2019-03-29T00:45:24.111Z,0
2019-03-29T00:46:23.930Z,0
2019-03-29T00:47:38.634Z,0
2019-03-29T00:48:24.362Z,0
2019-03-29T00:49:24.029Z,0
2019-03-29T00:50:24.002Z,0
2019-03-29T00:51:24.197Z,0
2019-03-29T00:52:24.001Z,0
2019-03-29T00:53:24.073Z,0
2019-03-29T00:54:24.113Z,0
2019-03-29T00:55:24.917Z,0
2019-03-29T00:56:24.154Z,0
2019-03-29T00:57:24.145Z,0
2019-03-29T00:58:25.252Z,0
2019-03-29T00:59:24.173Z,0
2019-03-29T01:00:38.898Z,0
2019-03-29T01:01:24.282Z,0
2019-03-29T01:02:24.268Z,0
2019-03-29T01:03:39.694Z,0
2019-03-29T01:04:24.309Z,0
2019-03-29T01:05:25.590Z,0
2019-03-29T01:06:24.332Z,0
2019-03-29T01:07:24.315Z,0
2019-03-29T01:08:24.334Z,0
2019-03-29T01:09:24.376Z,0
2019-03-29T01:10:25.198Z,0
2019-03-29T01:11:24.434Z,0
2019-03-29T01:12:24.429Z,0
2019-03-29T01:13:24.918Z,0
2019-03-29T01:14:24.441Z,0
2019-03-29T01:15:24.512Z,0
2019-03-29T01:16:24.495Z,0
2019-03-29T01:17:25.051Z,0
2019-03-29T01:18:39.207Z,0
2019-03-29T01:19:39.203Z,0
2019-03-29T01:20:24.536Z,0
2019-03-29T01:21:24.574Z,0
2019-03-29T01:22:24.623Z,0
2019-03-29T01:23:24.642Z,0
2019-03-29T01:24:24.679Z,0
2019-03-29T01:25:24.683Z,0
2019-03-29T01:26:24.681Z,0
2019-03-29T01:27:25.596Z,0
2019-03-29T01:28:24.743Z,0
2019-03-29T01:29:24.722Z,0
2019-03-29T01:30:25.419Z,0
2019-03-29T01:31:24.777Z,0
2019-03-29T01:32:24.805Z,0
2019-03-29T01:33:25.035Z,0
2019-03-29T01:34:24.874Z,0
2019-03-29T01:35:40.766Z,0
2019-03-29T01:36:24.871Z,0
2019-03-29T01:37:24.909Z,0
2019-03-29T01:38:44.213Z,0
2019-03-29T01:39:24.956Z,0
2019-03-29T01:40:24.942Z,0
2019-03-29T01:41:24.982Z,0
2019-03-29T01:42:26.092Z,0
2019-03-29T01:43:25.018Z,0
2019-03-29T01:44:24.995Z,0
2019-03-29T01:45:25.036Z,0
2019-03-29T01:46:39.709Z,0
2019-03-29T01:47:25.068Z,0
2019-03-29T01:48:25.534Z,0
2019-03-29T01:49:25.128Z,0
2019-03-29T01:50:25.152Z,0
2019-03-29T01:51:39.793Z,0
2019-03-29T01:52:25.183Z,0
2019-03-29T01:54:25.321Z,0
2019-03-29T01:55:25.505Z,0
2019-03-29T01:56:25.257Z,0
2019-03-29T01:57:39.914Z,0
2019-03-29T01:58:25.433Z,0
2019-03-29T01:59:39.958Z,0
2019-03-29T02:00:25.342Z,0
2019-03-29T02:01:25.397Z,0
2019-03-29T02:03:25.400Z,0
2019-03-29T02:04:40.032Z,0
2019-03-29T02:05:40.078Z,0
2019-03-29T02:06:40.142Z,0
2019-03-29T02:07:25.430Z,0
2019-03-29T02:08:40.522Z,0
2019-03-29T02:09:25.459Z,0
2019-03-29T02:10:25.524Z,0
2019-03-29T02:11:25.498Z,0
2019-03-29T02:12:25.563Z,0
2019-03-29T02:13:40.247Z,0
2019-03-29T02:14:40.236Z,0
2019-03-29T02:15:25.582Z,0
2019-03-29T02:16:25.591Z,0
2019-03-29T02:17:26.651Z,0
2019-03-29T02:18:25.638Z,0
2019-03-29T02:19:25.689Z,0
2019-03-29T02:21:25.697Z,0
2019-03-29T02:22:25.727Z,0
2019-03-29T02:23:25.771Z,0
2019-03-29T02:24:26.433Z,0
2019-03-29T02:25:25.785Z,0
2019-03-29T02:26:25.771Z,0
2019-03-29T02:27:26.423Z,0
2019-03-29T02:28:26.082Z,0
2019-03-29T02:29:25.874Z,0
2019-03-29T02:30:25.867Z,0
2019-03-29T02:31:31.633Z,0
2019-03-29T02:32:40.554Z,0
2019-03-29T02:33:27.730Z,0
2019-03-29T02:34:25.961Z,0
2019-03-29T02:35:25.726Z,0
2019-03-29T02:36:25.971Z,0
2019-03-29T02:37:26.133Z,0
2019-03-29T02:39:01.504Z,0
2019-03-29T02:40:40.812Z,0
2019-03-29T02:41:26.809Z,0
2019-03-29T02:42:26.152Z,0
2019-03-29T02:43:26.151Z,0
2019-03-29T02:44:26.178Z,0
2019-03-29T02:46:28.165Z,0
2019-03-29T02:47:26.787Z,0
2019-03-29T02:48:26.006Z,0
2019-03-29T02:49:26.040Z,0
2019-03-29T02:50:26.310Z,0
2019-03-29T02:51:40.961Z,0
2019-03-29T02:52:26.414Z,0
2019-03-29T02:53:26.474Z,0
2019-03-29T02:54:41.012Z,0
2019-03-29T02:56:41.043Z,0
2019-03-29T02:57:41.101Z,0
2019-03-29T02:58:26.192Z,0
2019-03-29T02:59:26.603Z,0
2019-03-29T03:00:41.112Z,0
2019-03-29T03:01:26.472Z,0
2019-03-29T03:02:30.981Z,0
2019-03-29T03:03:26.645Z,0
2019-03-29T03:04:26.743Z,0
2019-03-29T03:05:26.543Z,0
2019-03-29T03:06:26.614Z,0
2019-03-29T03:07:26.653Z,0
2019-03-29T03:08:26.423Z,0
2019-03-29T03:09:26.630Z,0
2019-03-29T03:10:26.691Z,0
2019-03-29T03:11:26.710Z,0
2019-03-29T03:12:26.716Z,0
2019-03-29T03:14:26.854Z,0
2019-03-29T03:15:41.576Z,0
2019-03-29T03:16:41.406Z,0
2019-03-29T03:17:26.814Z,0
2019-03-29T03:19:26.849Z,0
2019-03-29T03:20:26.845Z,0
2019-03-29T03:21:26.884Z,0
2019-03-29T03:22:26.872Z,0
2019-03-29T03:23:26.678Z,0
2019-03-29T03:24:26.915Z,0
2019-03-29T03:25:26.945Z,0
2019-03-29T03:26:26.945Z,0
2019-03-29T03:27:26.993Z,0
2019-03-29T03:28:27.012Z,0
2019-03-29T03:29:27.022Z,0
2019-03-29T03:30:27.061Z,0
2019-03-29T03:31:27.053Z,0
2019-03-29T03:32:41.765Z,0
2019-03-29T03:33:27.310Z,0
2019-03-29T03:34:27.196Z,0
2019-03-29T03:35:27.180Z,0
2019-03-29T03:36:41.823Z,0
2019-03-29T03:37:41.799Z,0
2019-03-29T03:38:27.170Z,0
2019-03-29T03:39:39.094Z,0
2019-03-29T03:40:27.247Z,0
2019-03-29T03:41:41.942Z,0
2019-03-29T03:42:27.242Z,0
2019-03-29T03:44:41.954Z,0
2019-03-29T03:45:27.338Z,0
2019-03-29T03:46:27.339Z,0
2019-03-29T03:47:27.368Z,0
2019-03-29T03:48:42.009Z,0
2019-03-29T03:49:27.404Z,0
2019-03-29T03:50:27.401Z,0
2019-03-29T03:51:27.456Z,0
2019-03-29T03:52:27.449Z,0
2019-03-29T03:53:27.483Z,0
2019-03-29T03:54:27.460Z,0
2019-03-29T03:55:27.503Z,0
2019-03-29T03:56:27.498Z,0
2019-03-29T03:57:27.585Z,0
2019-03-29T03:58:27.666Z,0
2019-03-29T03:59:27.567Z,0
2019-03-29T04:00:27.584Z,0
2019-03-29T04:01:27.623Z,0
2019-03-29T04:02:42.317Z,0
2019-03-29T04:03:42.283Z,0
2019-03-29T04:04:27.691Z,0
2019-03-29T04:05:27.695Z,0
2019-03-29T04:06:42.359Z,0
2019-03-29T04:07:27.749Z,0
2019-03-29T04:08:42.405Z,0
2019-03-29T04:09:27.824Z,0
2019-03-29T04:10:27.777Z,0
2019-03-29T04:11:27.817Z,0
2019-03-29T04:12:27.838Z,0
2019-03-29T04:13:27.821Z,0
2019-03-29T04:14:27.976Z,0
2019-03-29T04:15:27.892Z,0
2019-03-29T04:17:27.919Z,0
2019-03-29T04:18:27.951Z,0
2019-03-29T04:19:28.001Z,0
2019-03-29T04:20:27.987Z,0
2019-03-29T04:21:28.015Z,0
2019-03-29T04:23:27.830Z,0
2019-03-29T04:24:28.014Z,0
2019-03-29T04:25:28.090Z,0
2019-03-29T04:26:42.724Z,4
2019-03-29T04:27:42.499Z,4
2019-03-29T04:28:28.095Z,0
2019-03-29T04:29:28.133Z,4
2019-03-29T04:30:28.173Z,4
2019-03-29T04:31:42.830Z,4
2019-03-29T04:32:28.204Z,8
2019-03-29T04:33:27.969Z,4
2019-03-29T04:34:28.033Z,8
2019-03-29T04:35:42.875Z,8
2019-03-29T04:36:28.270Z,12
2019-03-29T04:37:28.269Z,12
2019-03-29T04:38:28.333Z,16
2019-03-29T04:39:28.325Z,16
2019-03-29T04:40:28.316Z,20
2019-03-29T04:41:28.360Z,24
2019-03-29T04:42:28.389Z,28
2019-03-29T04:43:28.396Z,32
2019-03-29T04:44:28.400Z,32
2019-03-29T04:45:28.394Z,40
2019-03-29T04:46:28.479Z,44
2019-03-29T04:47:28.479Z,48
2019-03-29T04:48:28.506Z,52
2019-03-29T04:49:28.475Z,56
2019-03-29T04:50:28.526Z,64
2019-03-29T04:51:43.167Z,72
2019-03-29T04:52:28.531Z,80
2019-03-29T04:53:28.568Z,84
2019-03-29T04:54:28.600Z,92
2019-03-29T04:56:28.601Z,116
2019-03-29T04:57:28.666Z,132
2019-03-29T04:58:28.742Z,148
2019-03-29T04:59:28.679Z,164
2019-03-29T05:00:43.349Z,192
2019-03-29T05:01:43.372Z,204
2019-03-29T05:02:28.755Z,216
2019-03-29T05:03:28.754Z,228
2019-03-29T05:04:28.554Z,244
2019-03-29T05:05:28.787Z,264
2019-03-29T05:06:43.477Z,288
2019-03-29T05:07:43.481Z,308
2019-03-29T05:08:28.909Z,324
2019-03-29T05:09:28.844Z,344
2019-03-29T05:10:43.929Z,380
2019-03-29T05:11:28.882Z,392
2019-03-29T05:12:28.943Z,408
2019-03-29T05:13:28.935Z,428
2019-03-29T05:14:28.966Z,448
2019-03-29T05:15:29.054Z,476
2019-03-29T05:17:29.039Z,580
2019-03-29T05:19:29.071Z,672
2019-03-29T05:20:29.072Z,692
2019-03-29T05:21:29.091Z,716
2019-03-29T05:22:29.081Z,744
2019-03-29T05:23:43.771Z,776
2019-03-29T05:24:29.212Z,780
2019-03-29T05:25:43.809Z,768
2019-03-29T05:26:32.478Z,760
2019-03-29T05:27:29.198Z,764
2019-03-29T05:28:29.236Z,780
2019-03-29T05:29:29.209Z,804
2019-03-29T05:30:29.000Z,832
2019-03-29T05:31:29.257Z,864
2019-03-29T05:32:29.309Z,904
2019-03-29T05:33:29.300Z,936
2019-03-29T05:34:29.340Z,988
2019-03-29T05:35:29.358Z,1024
2019-03-29T05:36:29.382Z,1044
2019-03-29T05:37:29.363Z,1040
2019-03-29T05:38:44.076Z,1036
2019-03-29T05:39:44.067Z,1056
2019-03-29T05:40:42.073Z,1072
2019-03-29T05:41:29.463Z,1080
2019-03-29T05:42:29.491Z,1084
2019-03-29T05:43:29.515Z,1084
2019-03-29T05:44:29.542Z,1088
2019-03-29T05:45:29.550Z,1060
2019-03-29T05:46:44.189Z,1032
2019-03-29T05:47:29.616Z,1092
2019-03-29T05:48:44.242Z,1280
2019-03-29T05:49:29.634Z,1340
2019-03-29T05:50:29.674Z,1412
2019-03-29T05:51:29.693Z,1484
2019-03-29T05:52:44.328Z,1568
2019-03-29T05:54:29.696Z,1740
2019-03-29T05:55:54.451Z,1860
2019-03-29T05:56:29.830Z,1888
2019-03-29T05:57:29.777Z,1904
2019-03-29T05:58:29.760Z,1920
2019-03-29T05:59:29.798Z,1960
2019-03-29T06:00:29.822Z,1996
2019-03-29T06:01:29.809Z,2028
2019-03-29T06:02:29.871Z,2056
2019-03-29T06:03:29.859Z,2088
2019-03-29T06:04:29.901Z,2096
2019-03-29T06:05:29.881Z,2064
2019-03-29T06:06:44.647Z,2068
2019-03-29T06:07:30.045Z,2100
2019-03-29T06:08:29.970Z,2144
2019-03-29T06:09:29.972Z,2164
2019-03-29T06:10:53.829Z,2200
2019-03-29T06:11:30.043Z,2204
2019-03-29T06:12:30.024Z,2224
2019-03-29T06:13:30.067Z,2260
2019-03-29T06:14:30.070Z,2288
2019-03-29T06:15:30.085Z,2316
2019-03-29T06:16:43.576Z,2392
2019-03-29T06:17:30.156Z,2420
2019-03-29T06:18:44.798Z,2448
2019-03-29T06:19:30.186Z,2440
2019-03-29T06:20:30.178Z,2388
2019-03-29T06:21:30.232Z,2336
2019-03-29T06:22:30.225Z,2300
2019-03-29T06:23:30.283Z,2300
2019-03-29T06:24:44.925Z,2284
2019-03-29T06:25:44.959Z,2300
2019-03-29T06:26:44.968Z,2332
2019-03-29T06:27:30.402Z,2356
2019-03-29T06:28:32.453Z,2400
2019-03-29T06:30:30.363Z,2496
2019-03-29T06:31:45.050Z,2452
2019-03-29T06:32:30.422Z,2420
2019-03-29T06:33:30.301Z,2376
2019-03-29T06:34:30.479Z,2348
2019-03-29T06:35:30.458Z,2328
2019-03-29T06:36:30.499Z,2332
2019-03-29T06:37:30.507Z,2336
2019-03-29T06:38:45.208Z,2352
2019-03-29T06:39:30.539Z,2376
2019-03-29T06:40:30.609Z,2436
2019-03-29T06:41:30.611Z,2496
2019-03-29T06:42:45.261Z,2552
2019-03-29T06:43:30.638Z,2596
2019-03-29T06:44:30.627Z,2668
2019-03-29T06:45:30.678Z,2720
2019-03-29T06:47:30.723Z,2756
2019-03-29T06:48:30.503Z,2760
2019-03-29T06:49:30.739Z,2776
2019-03-29T06:50:30.766Z,2824
2019-03-29T06:51:30.782Z,2864
2019-03-29T06:52:30.836Z,2920
2019-03-29T06:53:30.814Z,2956
2019-03-29T06:54:45.516Z,2948
2019-03-29T06:55:30.852Z,2964
2019-03-29T06:56:30.908Z,2972
2019-03-29T06:57:30.913Z,3008
2019-03-29T06:58:45.590Z,3080
2019-03-29T06:59:30.943Z,3116
2019-03-29T07:00:30.977Z,3148
2019-03-29T07:01:30.717Z,3184
2019-03-29T07:02:30.979Z,3220
2019-03-29T07:03:31.022Z,3256
2019-03-29T07:04:31.125Z,3300
2019-03-29T07:05:31.089Z,3364
2019-03-29T07:06:33.088Z,3392
2019-03-29T07:07:31.106Z,3424
2019-03-29T07:08:31.090Z,3400
2019-03-29T07:09:31.157Z,3348
2019-03-29T07:10:31.152Z,3312
2019-03-29T07:11:31.202Z,3292
2019-03-29T07:12:31.287Z,3284
2019-03-29T07:13:59.875Z,3284
2019-03-29T07:14:31.207Z,3284
2019-03-29T07:15:31.235Z,3324
2019-03-29T07:16:31.275Z,3344
2019-03-29T07:17:31.307Z,3360
2019-03-29T07:18:31.345Z,3388
2019-03-29T07:19:31.356Z,3356
2019-03-29T07:20:31.392Z,3368
2019-03-29T07:21:31.382Z,3424
2019-03-29T07:22:34.489Z,3516
2019-03-29T07:23:31.430Z,3600
2019-03-29T07:24:31.424Z,3680
2019-03-29T07:25:31.472Z,3740
2019-03-29T07:26:46.119Z,3796
2019-03-29T07:27:51.996Z,3868
2019-03-29T07:28:31.521Z,3936
2019-03-29T07:29:31.519Z,4000
2019-03-29T07:30:31.547Z,4020
2019-03-29T07:31:31.546Z,4048
2019-03-29T07:32:31.606Z,4108
2019-03-29T07:33:31.691Z,4204
2019-03-29T07:34:31.645Z,4284
2019-03-29T07:36:31.685Z,4272
2019-03-29T07:37:46.326Z,4232
2019-03-29T07:38:31.701Z,4216
2019-03-29T07:39:31.724Z,4188
2019-03-29T07:40:31.756Z,4152
2019-03-29T07:41:53.880Z,4076
2019-03-29T07:42:31.763Z,4084
2019-03-29T07:43:31.852Z,4144
2019-03-29T07:44:31.799Z,4268
2019-03-29T07:46:01.207Z,4464
2019-03-29T07:46:31.867Z,4520
2019-03-29T07:48:31.895Z,4620
2019-03-29T07:49:31.932Z,4652
2019-03-29T07:52:32.007Z,4792
2019-03-29T07:53:46.642Z,4848
2019-03-29T07:54:32.037Z,4816
2019-03-29T07:55:32.026Z,4752
2019-03-29T07:57:32.081Z,4956
2019-03-29T07:59:46.795Z,5492
2019-03-29T08:00:32.143Z,5680
2019-03-29T08:01:46.853Z,6012
2019-03-29T08:02:37.281Z,6220
2019-03-29T08:03:32.199Z,6412
2019-03-29T08:04:32.230Z,6616
2019-03-29T08:05:35.196Z,6668
2019-03-29T08:06:32.284Z,6620
2019-03-29T08:07:36.287Z,6652
2019-03-29T08:08:39.752Z,6820
2019-03-29T08:09:47.142Z,7236
2019-03-29T08:10:38.067Z,7668
2019-03-29T08:11:47.575Z,8176
2019-03-29T08:12:32.678Z,8380
2019-03-29T08:13:47.083Z,8480
2019-03-29T08:14:32.407Z,8448
2019-03-29T08:15:47.118Z,8492
2019-03-29T08:16:32.504Z,8712
2019-03-29T08:17:47.166Z,8968
2019-03-29T08:18:32.508Z,9144
2019-03-29T08:19:32.532Z,9296
2019-03-29T08:20:49.117Z,9372
2019-03-29T08:21:32.588Z,9484
2019-03-29T08:23:36.063Z,9680
2019-03-29T08:24:32.635Z,9708
2019-03-29T08:25:32.681Z,9720
2019-03-29T08:26:32.653Z,9652
2019-03-29T08:27:32.803Z,9524
2019-03-29T08:28:32.711Z,9252
2019-03-29T08:29:36.202Z,9060
2019-03-29T08:30:32.789Z,8864
2019-03-29T08:31:32.767Z,8756
2019-03-29T08:32:32.814Z,8508
2019-03-29T08:33:47.464Z,8240
2019-03-29T08:34:35.721Z,8196
2019-03-29T08:35:32.883Z,8244
2019-03-29T08:37:32.931Z,8536
2019-03-29T08:38:32.926Z,8688
2019-03-29T08:39:35.557Z,8640
2019-03-29T08:40:32.958Z,8472
2019-03-29T08:41:33.012Z,8184
2019-03-29T08:42:33.002Z,7944
2019-03-29T08:43:47.705Z,7752
2019-03-29T08:44:33.049Z,7840
2019-03-29T08:45:33.066Z,8060
2019-03-29T08:46:33.129Z,8032
2019-03-29T08:47:47.792Z,7944
2019-03-29T08:48:47.784Z,7924
2019-03-29T08:50:33.160Z,8412
2019-03-29T08:51:33.210Z,8572
2019-03-29T08:52:48.087Z,8324
2019-03-29T08:53:34.785Z,8176
2019-03-29T08:54:33.049Z,8336
2019-03-29T08:55:47.933Z,8668
2019-03-29T08:57:33.413Z,8952
2019-03-29T08:58:33.350Z,9100
2019-03-29T08:59:33.368Z,9212
2019-03-29T09:00:33.430Z,9252
2019-03-29T09:01:33.442Z,9128
2019-03-29T09:02:33.222Z,8900
2019-03-29T09:04:33.465Z,9108
2019-03-29T09:05:33.527Z,9384
2019-03-29T09:06:35.245Z,9548
2019-03-29T09:08:33.579Z,9556
2019-03-29T09:09:33.607Z,9280
2019-03-29T09:10:48.311Z,9116
2019-03-29T09:11:33.663Z,9064
2019-03-29T09:12:48.308Z,8940
2019-03-29T09:13:48.357Z,8836
2019-03-29T09:14:36.241Z,8744
2019-03-29T09:16:33.761Z,8428
2019-03-29T09:17:33.763Z,8496
2019-03-29T09:18:33.818Z,8620
2019-03-29T09:19:33.793Z,8664
2019-03-29T09:20:48.512Z,8436
2019-03-29T09:21:33.579Z,8352
2019-03-29T09:22:33.874Z,8292
2019-03-29T09:23:37.235Z,8184
2019-03-29T09:24:33.942Z,8080
2019-03-29T09:25:33.961Z,7916
2019-03-29T09:26:33.974Z,7692
2019-03-29T09:27:36.865Z,7424
2019-03-29T09:28:37.431Z,7224
2019-03-29T09:29:34.063Z,7244
2019-03-29T09:30:48.791Z,7264
2019-03-29T09:31:34.090Z,7176
2019-03-29T09:32:34.085Z,7052
2019-03-29T09:33:34.189Z,6916
2019-03-29T09:34:36.052Z,6812
2019-03-29T09:35:34.167Z,6756
2019-03-29T09:36:48.850Z,6696
2019-03-29T09:37:34.222Z,6604
2019-03-29T09:39:34.259Z,6512
2019-03-29T09:40:34.322Z,6360
2019-03-29T09:41:34.311Z,6308
2019-03-29T09:43:06.997Z,6132
2019-03-29T09:43:34.334Z,6152
2019-03-29T09:44:34.363Z,6096
2019-03-29T09:45:34.353Z,5980
2019-03-29T09:46:34.414Z,5908
2019-03-29T09:47:43.215Z,5840
2019-03-29T09:49:34.560Z,5904
2019-03-29T09:50:34.506Z,5920
2019-03-29T09:51:35.982Z,5868
2019-03-29T09:52:51.326Z,5704
2019-03-29T09:53:34.549Z,5668
2019-03-29T09:54:34.564Z,5656
2019-03-29T09:55:34.407Z,5664
2019-03-29T09:56:48.289Z,5688
2019-03-29T09:57:44.757Z,5660
2019-03-29T09:59:34.691Z,5644
2019-03-29T10:01:35.407Z,5676
2019-03-29T10:02:34.722Z,5720
2019-03-29T10:03:34.792Z,5724
2019-03-29T10:04:34.867Z,5764
2019-03-29T10:05:38.442Z,5832
2019-03-29T10:06:34.846Z,5892
2019-03-29T10:07:34.833Z,5964
2019-03-29T10:08:52.908Z,6040
2019-03-29T10:09:34.909Z,6052
2019-03-29T10:10:37.002Z,6020
2019-03-29T10:11:34.940Z,6012
2019-03-29T10:12:49.681Z,6040
2019-03-29T10:13:35.068Z,6044
2019-03-29T10:14:38.170Z,6056
2019-03-29T10:15:35.051Z,6124
2019-03-29T10:16:35.023Z,6276
2019-03-29T10:17:35.081Z,6356
2019-03-29T10:18:35.071Z,6352
2019-03-29T10:19:50.170Z,6352
2019-03-29T10:20:34.869Z,6336
2019-03-29T10:21:38.818Z,6316
2019-03-29T10:22:34.947Z,6316
2019-03-29T10:23:49.836Z,6296
2019-03-29T10:24:35.213Z,6288
2019-03-29T10:25:35.215Z,6264
2019-03-29T10:26:35.273Z,6248
2019-03-29T10:27:35.260Z,6288
2019-03-29T10:28:49.975Z,6440
2019-03-29T10:29:35.336Z,6512
2019-03-29T10:30:35.342Z,6528
2019-03-29T10:31:40.000Z,6508
2019-03-29T10:32:35.405Z,6468
2019-03-29T10:33:35.394Z,6424
2019-03-29T10:34:37.472Z,6520
2019-03-29T10:35:55.331Z,6608
2019-03-29T10:36:35.483Z,6580
2019-03-29T10:37:50.164Z,6516
2019-03-29T10:38:35.524Z,6572
2019-03-29T10:39:38.129Z,6624
2019-03-29T10:40:35.536Z,6680
2019-03-29T10:41:40.553Z,6784
2019-03-29T10:43:00.358Z,7012
2019-03-29T10:43:35.629Z,7088
2019-03-29T10:44:35.619Z,7208
2019-03-29T10:45:42.300Z,7300
2019-03-29T10:46:35.685Z,7392
2019-03-29T10:48:35.741Z,7632
2019-03-29T10:49:50.385Z,7720
2019-03-29T10:50:35.775Z,7748
2019-03-29T10:51:50.457Z,7744
2019-03-29T10:53:36.264Z,7572
2019-03-29T10:54:52.369Z,7452
2019-03-29T10:57:35.894Z,7488
2019-03-29T10:58:35.949Z,7392
2019-03-29T10:59:35.940Z,7372
2019-03-29T11:00:36.001Z,7320
2019-03-29T11:01:35.990Z,7448
2019-03-29T11:02:36.031Z,7508
2019-03-29T11:03:35.946Z,7388
2019-03-29T11:04:39.028Z,7304
2019-03-29T11:05:36.071Z,7204
2019-03-29T11:06:36.152Z,7108
2019-03-29T11:07:50.847Z,6948
2019-03-29T11:08:36.228Z,6920
2019-03-29T11:09:39.439Z,6840
2019-03-29T11:10:36.232Z,6736
2019-03-29T11:11:50.898Z,6648
2019-03-29T11:12:50.889Z,6700
2019-03-29T11:13:36.289Z,6720
2019-03-29T11:14:36.300Z,6656
2019-03-29T11:15:36.326Z,6384
2019-03-29T11:16:36.356Z,6076
2019-03-29T11:17:36.370Z,5732
2019-03-29T11:19:36.394Z,5624
2019-03-29T11:20:36.408Z,5784
2019-03-29T11:21:36.438Z,5976
2019-03-29T11:22:36.483Z,6000
2019-03-29T11:23:36.475Z,5980
2019-03-29T11:24:51.003Z,6000
2019-03-29T11:25:51.495Z,5872
2019-03-29T11:26:36.550Z,5752
2019-03-29T11:27:51.234Z,5640
2019-03-29T11:28:36.588Z,5668
2019-03-29T11:29:36.608Z,5764
2019-03-29T11:30:49.358Z,5956
2019-03-29T11:31:36.637Z,6112
2019-03-29T11:32:36.670Z,6524
2019-03-29T11:33:36.686Z,6892
2019-03-29T11:34:36.729Z,7088
2019-03-29T11:35:36.765Z,7172
2019-03-29T11:36:36.758Z,7176
2019-03-29T11:37:36.790Z,7092
2019-03-29T11:38:36.791Z,6988
2019-03-29T11:39:36.849Z,6848
2019-03-29T11:40:36.831Z,6748
2019-03-29T11:41:51.537Z,6812
2019-03-29T11:42:36.897Z,6860
2019-03-29T11:43:51.563Z,6880
2019-03-29T11:45:36.978Z,7000
2019-03-29T11:46:36.952Z,7088
2019-03-29T11:47:37.017Z,7272
2019-03-29T11:48:37.000Z,7636
2019-03-29T11:49:37.058Z,7948
2019-03-29T11:50:51.759Z,8336
2019-03-29T11:51:36.858Z,8544
2019-03-29T11:52:38.753Z,8784
2019-03-29T11:53:37.135Z,8904
2019-03-29T11:54:37.144Z,8800
2019-03-29T11:55:51.854Z,8600
2019-03-29T11:56:37.176Z,8468
2019-03-29T11:57:37.248Z,8252
2019-03-29T11:58:51.878Z,8144
2019-03-29T11:59:39.966Z,8164
2019-03-29T12:01:37.301Z,8312
2019-03-29T12:02:38.954Z,8360
2019-03-29T12:03:52.009Z,8284
2019-03-29T12:04:37.388Z,8136
2019-03-29T12:06:37.396Z,7872
2019-03-29T12:07:37.544Z,7736
2019-03-29T12:08:37.463Z,7440
2019-03-29T12:09:37.557Z,7156
2019-03-29T12:10:37.508Z,6876
2019-03-29T12:13:48.296Z,6396
2019-03-29T12:14:37.592Z,6328
2019-03-29T12:15:37.602Z,6252
2019-03-29T12:16:37.653Z,6068
2019-03-29T12:17:37.681Z,5900
2019-03-29T12:18:37.757Z,5768
2019-03-29T12:19:37.695Z,5604
2019-03-29T12:20:37.872Z,5500
2019-03-29T12:22:37.756Z,5276
2019-03-29T12:23:37.798Z,5200
2019-03-29T12:24:37.818Z,5124
2019-03-29T12:25:37.835Z,5084
2019-03-29T12:26:37.881Z,5152
2019-03-29T12:27:37.895Z,5256
2019-03-29T12:28:37.890Z,5312
2019-03-29T12:29:37.919Z,5308
2019-03-29T12:30:52.598Z,5244
2019-03-29T12:31:37.995Z,5204
2019-03-29T12:32:37.976Z,5204
2019-03-29T12:33:38.038Z,5216
2019-03-29T12:34:38.023Z,5296
2019-03-29T12:35:52.746Z,5492
2019-03-29T12:36:38.048Z,5712
2019-03-29T12:37:52.733Z,6060
2019-03-29T12:38:38.136Z,6232
2019-03-29T12:39:38.129Z,6540
2019-03-29T12:41:38.177Z,7320
2019-03-29T12:42:52.873Z,7640
2019-03-29T12:43:38.198Z,7724
2019-03-29T12:44:38.227Z,7604
2019-03-29T12:45:38.272Z,7496
2019-03-29T12:46:52.947Z,7432
2019-03-29T12:47:38.344Z,7360
2019-03-29T12:48:38.319Z,7088
2019-03-29T12:49:38.388Z,6756
2019-03-29T12:50:38.363Z,6516
2019-03-29T12:51:38.402Z,6328
2019-03-29T12:52:38.428Z,6132
2019-03-29T12:53:38.419Z,6060
2019-03-29T12:54:38.453Z,5984
2019-03-29T12:55:38.498Z,5840
2019-03-29T12:56:38.519Z,5696
2019-03-29T12:57:41.534Z,5468
2019-03-29T12:58:53.192Z,5460
2019-03-29T13:00:38.585Z,5380
2019-03-29T13:01:47.035Z,5352
2019-03-29T13:02:53.315Z,5420
2019-03-29T13:03:38.670Z,5472
2019-03-29T13:04:38.710Z,5420
2019-03-29T13:05:38.790Z,5276
2019-03-29T13:06:38.732Z,5248
2019-03-29T13:07:38.724Z,5276
2019-03-29T13:08:38.791Z,5280
2019-03-29T13:09:42.045Z,5308
2019-03-29T13:10:42.253Z,5360
2019-03-29T13:11:38.843Z,5256
2019-03-29T13:12:38.876Z,4996
2019-03-29T13:13:38.852Z,4712
2019-03-29T13:14:38.895Z,4440
2019-03-29T13:15:38.911Z,4244
2019-03-29T13:17:38.953Z,4004
2019-03-29T13:18:56.145Z,3848
2019-03-29T13:19:53.657Z,3724
2019-03-29T13:20:39.053Z,3624
2019-03-29T13:21:41.293Z,3536
2019-03-29T13:22:56.526Z,3536
2019-03-29T13:23:39.161Z,3576
2019-03-29T13:24:39.097Z,3612
2019-03-29T13:25:53.817Z,3652
2019-03-29T13:26:39.154Z,3676
2019-03-29T13:27:39.217Z,3724
2019-03-29T13:28:39.195Z,3840
2019-03-29T13:29:38.998Z,3976
2019-03-29T13:30:39.244Z,4024
2019-03-29T13:31:39.274Z,4060
2019-03-29T13:32:40.794Z,4144
2019-03-29T13:33:53.958Z,4272
2019-03-29T13:34:39.317Z,4348
2019-03-29T13:35:39.386Z,4504
2019-03-29T13:36:39.387Z,4664
2019-03-29T13:37:39.436Z,4864
2019-03-29T13:39:39.462Z,5116
2019-03-29T13:40:39.446Z,5244
2019-03-29T13:41:39.477Z,5232
2019-03-29T13:42:39.495Z,5164
2019-03-29T13:43:39.621Z,5068
2019-03-29T13:45:54.247Z,4860
2019-03-29T13:46:39.582Z,4744
2019-03-29T13:47:39.641Z,4512
2019-03-29T13:48:39.719Z,4296
2019-03-29T13:49:39.690Z,4168
2019-03-29T13:50:39.663Z,4068
2019-03-29T13:51:39.705Z,3980
2019-03-29T13:52:39.470Z,3896
2019-03-29T13:53:39.775Z,3896
2019-03-29T13:54:39.791Z,3944
2019-03-29T13:55:39.782Z,3936
2019-03-29T13:56:39.802Z,3976
2019-03-29T13:57:39.822Z,4064
2019-03-29T13:58:54.529Z,4124
2019-03-29T13:59:39.881Z,4164
2019-03-29T14:00:39.941Z,4264
2019-03-29T14:01:39.927Z,4372
2019-03-29T14:04:39.958Z,4560
2019-03-29T14:05:54.677Z,4604
2019-03-29T14:06:40.011Z,4612
2019-03-29T14:07:40.071Z,4540
2019-03-29T14:08:40.060Z,4420
2019-03-29T14:09:40.102Z,4324
2019-03-29T14:10:40.094Z,4252
2019-03-29T14:11:40.164Z,4144
2019-03-29T14:12:40.198Z,4044
2019-03-29T14:13:40.165Z,3964
2019-03-29T14:14:45.837Z,3876
2019-03-29T14:15:40.245Z,3812
2019-03-29T14:16:40.239Z,3748
2019-03-29T14:17:54.941Z,3712
2019-03-29T14:18:40.280Z,3736
2019-03-29T14:19:40.326Z,3736
2019-03-29T14:20:40.315Z,3688
2019-03-29T14:21:54.994Z,3644
2019-03-29T14:22:40.134Z,3612
2019-03-29T14:23:40.400Z,3580
2019-03-29T14:24:40.446Z,3572
2019-03-29T14:25:40.431Z,3632
2019-03-29T14:26:40.476Z,3672
2019-03-29T14:27:55.304Z,3736
2019-03-29T14:28:54.897Z,3820
2019-03-29T14:29:40.539Z,3868
2019-03-29T14:30:40.541Z,3896
2019-03-29T14:31:40.669Z,3896
2019-03-29T14:32:55.230Z,3956
2019-03-29T14:33:40.626Z,4008
2019-03-29T14:34:40.656Z,4020
2019-03-29T14:35:40.650Z,4020
2019-03-29T14:36:40.666Z,3916
2019-03-29T14:37:55.362Z,3772
2019-03-29T14:38:40.700Z,3768
2019-03-29T14:39:40.761Z,3792
2019-03-29T14:40:40.749Z,3872
2019-03-29T14:41:40.833Z,3928
2019-03-29T14:42:40.865Z,3980
2019-03-29T14:43:40.844Z,4032